KCUB/CUB METAR and TAF weather

Enter ICAO airport designator
Station Type Date Time Source
KCUB METAR 2018/01/19 16:53 UTC NOAA

KCUB 191653Z AUTO 00000KT 10SM CLR 08/M08 A3027 RMK AO2 SLP251 T00781078


Station Type Date Time Source
KCUB Decoded METAR 2018/01/19 16:53 UTC NOAA

OWENS DOWNTOWN AIRPORT, SC, United States (KCUB) 33-58N 081-00W 56M
Jan 19, 2018 - 11:53 AM EST / 2018.01.19 1653 UTC
Wind: Calm:0
Visibility: 10 mile(s):0
Sky conditions: clear
Temperature: 46.0 F (7.8 C)
Dew Point: 18.0 F (-7.8 C)
Relative Humidity: 32%
Pressure (altimeter): 30.27 in. Hg (1025 hPa)
ob: KCUB 191653Z AUTO 00000KT 10SM CLR 08/M08 A3027 RMK AO2 SLP251 T00781078
cycle: 17

Station Type Date Time Source
KCUB TAF 2018/01/19 18:33 UTC NOAA

TAF KCUB 191731Z 1918/2018 25006KT P6SM SKC
FM200000 VRB03KT P6SM SKC


Example: see airport list